createdAt,value
2018-05-25T00:01:52.001Z,66.45
2018-05-25T00:04:18.593Z,66.76
2018-05-25T00:06:45.112Z,67.27
2018-05-25T00:09:11.753Z,66.73
2018-05-25T00:11:38.418Z,66.31
2018-05-25T00:14:05.233Z,67.03
2018-05-25T00:16:31.817Z,67.71
2018-05-25T00:18:58.468Z,67.44
2018-05-25T00:21:25.058Z,67.25
2018-05-25T00:23:51.709Z,67.52
2018-05-25T00:26:18.459Z,67.19
2018-05-25T00:28:44.980Z,66.24
2018-05-25T00:31:11.618Z,66.15
2018-05-25T00:33:38.384Z,66.26
2018-05-25T00:36:05.014Z,66.41
2018-05-25T00:38:31.525Z,66.58
2018-05-25T00:40:58.323Z,66.85
2018-05-25T00:43:25.652Z,67.01
2018-05-25T00:45:52.362Z,66.68
2018-05-25T00:50:52.421Z,67.62
2018-05-25T00:53:19.110Z,67.42
2018-05-25T00:55:45.662Z,66.96
2018-05-25T00:58:12.599Z,66.83
2018-05-25T01:00:39.161Z,67.09
2018-05-25T01:03:05.768Z,67.36
2018-05-25T01:05:32.252Z,67.58
2018-05-25T01:07:59.054Z,67.72
2018-05-25T01:10:25.702Z,67.54
2018-05-25T01:12:52.234Z,67.12
2018-05-25T01:15:18.789Z,66.67
2018-05-25T01:17:45.533Z,66.16
2018-05-25T01:20:12.169Z,66.09
2018-05-25T01:22:39.040Z,66.30
2018-05-25T01:25:05.551Z,66.35
2018-05-25T01:27:32.248Z,65.94
2018-05-25T01:29:59.077Z,65.54
2018-05-25T01:32:25.748Z,65.53
2018-05-25T01:34:52.436Z,65.98
2018-05-25T01:37:19.090Z,66.43
2018-05-25T01:39:45.685Z,66.40
2018-05-25T01:42:12.345Z,66.28
2018-05-25T01:44:39.081Z,66.18
2018-05-25T01:47:05.698Z,66.46
2018-05-25T01:49:32.293Z,66.39
2018-05-25T01:51:58.820Z,66.68
2018-05-25T01:54:25.468Z,66.59
2018-05-25T01:56:52.027Z,66.68
2018-05-25T01:59:18.741Z,66.67
2018-05-25T02:01:45.286Z,66.63
2018-05-25T02:04:12.117Z,67.66
2018-05-25T02:06:38.629Z,67.27
2018-05-25T02:09:05.248Z,66.61
2018-05-25T02:11:31.968Z,66.55
2018-05-25T02:13:58.532Z,66.41
2018-05-25T02:16:25.220Z,66.50
2018-05-25T02:18:51.974Z,66.60
2018-05-25T02:21:18.636Z,66.60
2018-05-25T02:23:45.301Z,66.81
2018-05-25T02:26:11.887Z,66.96
2018-05-25T02:28:38.432Z,67.28
2018-05-25T02:31:05.089Z,67.43
2018-05-25T02:33:31.715Z,66.87
2018-05-25T02:35:58.305Z,66.64
2018-05-25T02:38:24.973Z,67.07
2018-05-25T02:40:51.586Z,66.76
2018-05-25T02:43:18.337Z,66.67
2018-05-25T02:45:44.860Z,66.41
2018-05-25T02:48:12.169Z,66.59
2018-05-25T02:50:38.812Z,66.85
2018-05-25T02:53:05.513Z,66.86
2018-05-25T02:55:32.236Z,66.92
2018-05-25T02:57:58.943Z,67.38
2018-05-25T03:00:25.596Z,67.19
2018-05-25T03:02:53.045Z,67.00
2018-05-25T03:05:19.961Z,67.42
2018-05-25T03:07:46.589Z,67.56
2018-05-25T03:10:13.175Z,67.31
2018-05-25T03:12:41.788Z,66.67
2018-05-25T03:15:08.352Z,66.67
2018-05-25T03:17:35.909Z,66.55
2018-05-25T03:20:04.436Z,66.75
2018-05-25T03:22:32.198Z,66.50
2018-05-25T03:25:00.086Z,66.59
2018-05-25T03:27:26.975Z,66.36
2018-05-25T03:29:54.205Z,66.28
2018-05-25T03:32:27.964Z,66.29
2018-05-25T03:35:00.073Z,66.74
2018-05-25T03:37:30.833Z,66.76
2018-05-25T03:39:57.836Z,66.46
2018-05-25T03:42:25.245Z,66.40
2018-05-25T03:44:51.853Z,66.01
2018-05-25T03:47:18.568Z,65.77
2018-05-25T03:49:45.046Z,65.69
2018-05-25T03:52:11.693Z,65.62
2018-05-25T03:54:38.420Z,65.36
2018-05-25T03:57:05.025Z,65.16
2018-05-25T03:59:43.752Z,65.12
2018-05-25T04:02:10.353Z,65.05
2018-05-25T04:04:36.892Z,65.31
2018-05-25T04:07:03.394Z,65.18
2018-05-25T04:09:29.944Z,65.29
2018-05-25T04:11:56.572Z,65.34
2018-05-25T04:14:23.154Z,65.47
2018-05-25T04:16:49.718Z,66.14
2018-05-25T04:19:16.473Z,66.15
2018-05-25T04:21:43.040Z,66.83
2018-05-25T04:24:09.560Z,66.50
2018-05-25T04:26:36.117Z,66.27
2018-05-25T04:29:02.697Z,66.13
2018-05-25T04:31:29.291Z,65.93
2018-05-25T04:33:56.001Z,65.63
2018-05-25T04:36:29.556Z,65.65
2018-05-25T04:38:56.284Z,65.24
2018-05-25T04:41:23.152Z,64.92
2018-05-25T04:43:50.080Z,65.45
2018-05-25T04:46:16.689Z,65.36
2018-05-25T04:48:43.260Z,65.34
2018-05-25T04:51:09.826Z,65.26
2018-05-25T04:53:36.481Z,64.93
2018-05-25T04:56:03.093Z,64.96
2018-05-25T04:58:29.633Z,64.85
2018-05-25T05:00:56.337Z,64.38
2018-05-25T05:03:22.884Z,64.44
2018-05-25T05:05:49.493Z,69.78
2018-05-25T05:08:16.413Z,63.80
2018-05-25T05:10:43.047Z,63.29
2018-05-25T05:13:09.704Z,64.13
2018-05-25T05:15:36.416Z,64.77
2018-05-25T05:18:03.111Z,64.15
2018-05-25T05:20:29.613Z,62.85
2018-05-25T05:22:56.325Z,62.48
2018-05-25T05:25:23.053Z,60.99
2018-05-25T05:27:49.725Z,60.65
2018-05-25T05:30:16.324Z,60.30
2018-05-25T05:32:42.810Z,59.38
2018-05-25T05:35:09.397Z,58.29
2018-05-25T05:37:35.872Z,58.07
2018-05-25T05:40:02.519Z,57.72
2018-05-25T05:42:29.056Z,56.89
2018-05-25T05:44:55.586Z,56.48
2018-05-25T05:47:22.208Z,56.56
2018-05-25T05:49:48.890Z,56.46
2018-05-25T05:52:15.472Z,56.54
2018-05-25T05:54:42.220Z,56.54
2018-05-25T05:57:08.897Z,56.89
2018-05-25T05:59:35.514Z,56.78
2018-05-25T06:02:02.229Z,56.60
2018-05-25T06:04:28.780Z,56.64
2018-05-25T06:06:55.266Z,55.91
2018-05-25T06:09:21.864Z,56.37
2018-05-25T06:11:48.421Z,56.13
2018-05-25T06:14:14.998Z,55.97
2018-05-25T06:16:41.509Z,56.03
2018-05-25T06:19:08.265Z,55.87
2018-05-25T06:21:34.961Z,55.86
2018-05-25T06:24:01.568Z,55.81
2018-05-25T06:26:28.043Z,55.91
2018-05-25T06:28:54.603Z,55.91
2018-05-25T06:31:21.072Z,55.35
2018-05-25T06:33:47.457Z,54.86
2018-05-25T06:36:14.064Z,56.11
2018-05-25T06:38:40.749Z,56.18
2018-05-25T06:41:07.412Z,55.06
2018-05-25T06:43:34.140Z,54.71
2018-05-25T06:46:00.904Z,55.13
2018-05-25T06:48:27.634Z,55.11
2018-05-25T06:50:54.385Z,54.52
2018-05-25T06:53:20.930Z,54.11
2018-05-25T06:55:47.840Z,54.03
2018-05-25T06:58:18.098Z,55.98
2018-05-25T07:00:45.293Z,55.41
2018-05-25T07:03:12.106Z,55.26
2018-05-25T07:05:38.908Z,54.80
2018-05-25T07:08:05.648Z,54.57
2018-05-25T07:10:32.308Z,54.88
2018-05-25T07:12:59.194Z,53.67
2018-05-25T07:15:26.534Z,53.82
2018-05-25T07:17:53.110Z,54.51
2018-05-25T07:20:19.945Z,53.21
2018-05-25T07:22:46.729Z,52.88
2018-05-25T07:25:13.343Z,53.19
2018-05-25T07:27:39.866Z,53.04
2018-05-25T07:30:06.410Z,52.60
2018-05-25T07:32:32.978Z,52.25
2018-05-25T07:35:00.552Z,53.13
2018-05-25T07:37:27.342Z,52.41
2018-05-25T07:39:53.903Z,51.75
2018-05-25T07:42:20.688Z,51.55
2018-05-25T07:44:47.430Z,51.69
2018-05-25T07:47:14.196Z,51.95
2018-05-25T07:49:41.028Z,52.11
2018-05-25T07:52:07.804Z,51.58
2018-05-25T07:54:34.405Z,51.22
2018-05-25T07:57:01.730Z,51.98
2018-05-25T07:59:29.278Z,52.05
2018-05-25T08:01:58.313Z,51.07
2018-05-25T08:04:26.688Z,50.90
2018-05-25T08:06:54.310Z,51.39
2018-05-25T08:09:21.096Z,52.09
2018-05-25T08:11:47.724Z,51.59
2018-05-25T08:14:14.520Z,51.50
2018-05-25T08:16:41.846Z,51.18
2018-05-25T08:23:43.052Z,49.99
2018-05-25T08:26:10.578Z,49.74
2018-05-25T08:28:37.049Z,49.52
2018-05-25T08:31:03.684Z,48.97
2018-05-25T08:33:30.370Z,49.15
2018-05-25T08:35:56.909Z,48.94
2018-05-25T08:38:23.548Z,49.24
2018-05-25T08:40:50.224Z,48.22
2018-05-25T08:43:16.955Z,48.13
2018-05-25T08:45:44.349Z,48.41
2018-05-25T08:48:11.032Z,45.37
2018-05-25T08:50:38.227Z,45.97
2018-05-25T08:53:05.081Z,46.36
2018-05-25T08:55:31.888Z,46.51
2018-05-25T08:57:59.219Z,45.48
2018-05-25T09:00:26.436Z,46.34
2018-05-25T09:02:53.018Z,46.35
2018-05-25T09:05:19.826Z,45.55
2018-05-25T09:07:46.808Z,46.11
2018-05-25T09:10:13.661Z,45.80
2018-05-25T09:12:40.356Z,44.45
2018-05-25T09:15:07.116Z,44.23
2018-05-25T09:17:35.047Z,45.00
2018-05-25T09:20:02.048Z,45.75
2018-05-25T09:22:28.600Z,44.12
2018-05-25T09:24:55.181Z,43.84
2018-05-25T09:27:21.882Z,44.08
2018-05-25T09:29:48.555Z,43.01
2018-05-25T09:32:15.424Z,43.43
2018-05-25T09:34:42.286Z,43.97
2018-05-25T09:37:08.969Z,43.83
2018-05-25T09:39:35.702Z,42.12
2018-05-25T09:42:03.065Z,42.59
2018-05-25T09:44:29.727Z,43.31
2018-05-25T09:46:56.496Z,44.57
2018-05-25T09:49:23.362Z,44.10
2018-05-25T09:51:49.895Z,43.90
2018-05-25T09:54:16.587Z,42.92
2018-05-25T09:56:55.477Z,43.07
2018-05-25T09:59:22.060Z,40.55
2018-05-25T10:01:48.703Z,41.57
2018-05-25T10:04:15.259Z,41.88
2018-05-25T10:06:41.829Z,41.06
2018-05-25T10:09:08.505Z,41.60
2018-05-25T10:11:35.167Z,41.16
2018-05-25T10:14:01.817Z,41.77
2018-05-25T10:16:28.436Z,40.81
2018-05-25T10:18:55.116Z,40.29
2018-05-25T10:21:21.712Z,39.76
2018-05-25T10:23:48.396Z,40.41
2018-05-25T10:26:15.270Z,40.50
2018-05-25T10:28:41.995Z,39.78
2018-05-25T10:31:08.733Z,40.32
2018-05-25T10:33:35.579Z,41.00
2018-05-25T10:36:02.150Z,40.28
2018-05-25T10:38:28.761Z,40.37
2018-05-25T10:40:55.562Z,40.54
2018-05-25T10:43:22.279Z,40.23
2018-05-25T10:45:48.985Z,40.26
2018-05-25T10:48:15.722Z,40.24
2018-05-25T10:50:42.685Z,39.95
2018-05-25T10:53:12.099Z,38.86
2018-05-25T10:55:38.712Z,38.59
2018-05-25T10:58:07.341Z,39.32
2018-05-25T11:00:34.014Z,37.97
2018-05-25T11:03:00.595Z,37.87
2018-05-25T11:05:27.338Z,38.04
2018-05-25T11:07:54.026Z,38.46
2018-05-25T11:10:20.642Z,38.15
2018-05-25T11:12:47.378Z,37.05
2018-05-25T11:15:13.970Z,37.89
2018-05-25T11:17:40.488Z,37.19
2018-05-25T11:20:08.066Z,37.14
2018-05-25T11:22:34.677Z,37.54
2018-05-25T11:25:01.370Z,37.40
2018-05-25T11:27:28.259Z,36.88
2018-05-25T11:29:54.999Z,37.20
2018-05-25T11:32:21.749Z,37.66
2018-05-25T11:34:48.687Z,38.25
2018-05-25T11:37:15.772Z,38.77
2018-05-25T11:39:42.492Z,38.06
2018-05-25T11:42:09.584Z,37.84
2018-05-25T11:44:36.315Z,38.66
2018-05-25T11:47:02.991Z,38.12
2018-05-25T11:49:30.368Z,37.87
2018-05-25T11:51:57.007Z,38.26
2018-05-25T11:54:23.812Z,38.33
2018-05-25T11:59:24.793Z,39.06
2018-05-25T12:01:51.896Z,38.64
2018-05-25T12:04:19.580Z,38.59
2018-05-25T12:06:47.127Z,38.62
2018-05-25T12:09:19.336Z,39.01
2018-05-25T12:11:46.166Z,39.28
2018-05-25T12:14:12.825Z,40.10
2018-05-25T12:16:39.740Z,43.49
2018-05-25T12:19:07.573Z,44.81
2018-05-25T12:21:34.566Z,45.90
2018-05-25T12:24:03.121Z,45.18
2018-05-25T12:26:30.649Z,46.24
2018-05-25T12:28:58.464Z,45.61
2018-05-25T12:31:32.800Z,45.72
2018-05-25T12:33:59.636Z,44.62
2018-05-25T12:36:26.220Z,44.47
2018-05-25T12:38:53.306Z,44.33
2018-05-25T12:41:22.371Z,44.24
2018-05-25T12:43:49.421Z,43.57
2018-05-25T12:46:18.138Z,44.18
2018-05-25T12:48:46.213Z,43.63
2018-05-25T12:51:18.112Z,42.68
2018-05-25T12:53:52.460Z,41.22
2018-05-25T12:56:21.148Z,41.07
2018-05-25T12:58:53.409Z,41.23
2018-05-25T13:01:23.886Z,40.89
2018-05-25T13:04:00.790Z,39.31
2018-05-25T13:06:34.478Z,39.38
2018-05-25T13:09:01.413Z,39.62
2018-05-25T13:11:28.455Z,38.19
2018-05-25T13:13:56.667Z,38.42
2018-05-25T13:16:26.141Z,38.77
2018-05-25T13:18:54.985Z,38.74
2018-05-25T13:21:24.254Z,38.65
2018-05-25T13:23:55.795Z,39.17
2018-05-25T13:26:34.106Z,38.76
2018-05-25T13:29:04.262Z,38.60
2018-05-25T13:31:32.035Z,39.32
2018-05-25T13:33:58.884Z,39.78
2018-05-25T13:36:25.948Z,39.88
2018-05-25T13:38:52.756Z,40.16
2018-05-25T13:41:19.500Z,40.66
2018-05-25T13:43:47.594Z,39.79
2018-05-25T13:46:16.560Z,40.29
2018-05-25T13:48:45.838Z,40.41
2018-05-25T13:51:15.112Z,41.13
2018-05-25T13:53:44.765Z,41.06
2018-05-25T13:56:12.575Z,42.28
2018-05-25T13:58:42.884Z,42.90
2018-05-25T14:01:10.924Z,41.96
2018-05-25T14:03:40.010Z,45.47
2018-05-25T14:06:08.236Z,46.39
2018-05-25T14:08:36.620Z,46.33
2018-05-25T14:11:04.414Z,46.75
2018-05-25T14:13:31.096Z,47.24
2018-05-25T14:15:58.368Z,47.42
2018-05-25T14:18:26.285Z,47.25
2018-05-25T14:20:53.017Z,47.50
2018-05-25T14:23:19.681Z,47.99
2018-05-25T14:25:46.297Z,47.46
2018-05-25T14:28:12.813Z,48.09
2018-05-25T14:30:39.277Z,47.99
2018-05-25T14:33:05.792Z,47.76
2018-05-25T14:38:47.508Z,47.20
2018-05-25T14:41:14.128Z,47.18
2018-05-25T14:43:40.881Z,47.50
2018-05-25T14:46:08.426Z,47.61
2018-05-25T14:48:34.977Z,47.74
2018-05-25T14:51:01.495Z,48.23
2018-05-25T14:53:28.025Z,48.15
2018-05-25T14:55:54.496Z,47.57
2018-05-25T14:58:21.004Z,47.31
2018-05-25T15:09:24.509Z,46.94
2018-05-25T15:11:52.851Z,46.79
2018-05-25T15:14:19.681Z,46.66
2018-05-25T15:16:46.288Z,47.23
2018-05-25T15:19:12.928Z,47.59
2018-05-25T15:21:39.561Z,46.80
2018-05-25T15:27:20.169Z,47.50
2018-05-25T15:34:24.457Z,47.76
2018-05-25T15:58:28.063Z,49.21
2018-05-25T16:01:08.955Z,48.44
2018-05-25T16:09:47.759Z,48.11
2018-05-25T16:12:18.407Z,48.06
2018-05-25T16:54:06.433Z,47.70
2018-05-25T16:56:33.876Z,49.06
2018-05-25T16:59:00.473Z,53.76
2018-05-25T17:01:26.955Z,51.56
2018-05-25T17:03:53.749Z,50.67
2018-05-25T17:06:25.304Z,47.30
2018-05-25T17:08:53.136Z,50.81
2018-05-25T17:11:19.813Z,47.72
2018-05-25T17:13:47.137Z,48.29
2018-05-25T17:16:13.913Z,50.73
2018-05-25T17:18:40.810Z,50.05
2018-05-25T17:21:08.642Z,50.43
2018-05-25T17:23:35.097Z,50.77
2018-05-25T17:26:14.904Z,50.15
2018-05-25T17:28:42.610Z,51.18
2018-05-25T17:34:18.449Z,51.65
2018-05-25T17:36:44.945Z,51.29
2018-05-25T17:39:11.405Z,50.62
2018-05-25T17:41:40.039Z,51.03
2018-05-25T17:44:08.804Z,50.25
2018-05-25T17:46:35.436Z,50.64
2018-05-25T17:49:02.284Z,50.88
2018-05-25T17:51:29.633Z,48.10
2018-05-25T17:53:56.257Z,49.22
2018-05-25T17:56:22.876Z,51.25
2018-05-25T17:58:49.573Z,52.11
2018-05-25T18:01:16.117Z,52.78
2018-05-25T18:03:42.620Z,55.02
2018-05-25T18:06:09.381Z,53.48
2018-05-25T18:08:35.981Z,55.11
2018-05-25T18:11:02.965Z,55.48
2018-05-25T18:13:29.433Z,54.99
2018-05-25T18:15:56.788Z,56.43
2018-05-25T18:18:23.348Z,56.31
2018-05-25T18:20:49.976Z,55.54
2018-05-25T18:23:16.463Z,57.18
2018-05-25T18:25:42.949Z,57.45
2018-05-25T18:28:09.452Z,56.48
2018-05-25T18:30:36.101Z,56.02
2018-05-25T18:33:02.612Z,56.54
2018-05-25T18:35:29.194Z,57.65
2018-05-25T18:37:55.729Z,56.30
2018-05-25T18:40:22.216Z,55.84
2018-05-25T18:42:48.665Z,59.26
2018-05-25T18:45:15.253Z,56.50
2018-05-25T18:47:41.698Z,56.24
2018-05-25T18:50:11.476Z,58.50
2018-05-25T18:52:38.148Z,58.44
2018-05-25T18:55:04.806Z,57.31
2018-05-25T18:57:31.336Z,57.85
2018-05-25T18:59:57.937Z,58.40
2018-05-25T19:02:24.685Z,59.06
2018-05-25T19:04:52.238Z,59.62
2018-05-25T19:07:18.940Z,58.57
2018-05-25T19:09:45.435Z,58.39
2018-05-25T19:12:12.115Z,57.73
2018-05-25T19:14:38.736Z,58.75
2018-05-25T19:17:06.034Z,58.50
2018-05-25T19:19:32.581Z,57.07
2018-05-25T19:21:59.319Z,59.31
2018-05-25T19:24:25.868Z,58.27
2018-05-25T19:26:52.401Z,58.08
2018-05-25T19:29:19.511Z,58.21
2018-05-25T19:31:50.289Z,57.76
2018-05-25T19:34:19.784Z,58.99
2018-05-25T19:36:46.331Z,58.05
2018-05-25T19:39:12.982Z,58.41
2018-05-25T19:44:49.981Z,56.42
2018-05-25T19:47:16.725Z,55.96
2018-05-25T19:49:43.238Z,55.42
2018-05-25T19:52:13.942Z,55.31
2018-05-25T19:54:42.193Z,54.28
2018-05-25T19:59:52.233Z,53.62
2018-05-25T20:08:44.893Z,56.39
2018-05-25T20:24:32.668Z,59.77
2018-05-25T20:26:59.383Z,59.94
2018-05-25T20:29:26.039Z,60.17
2018-05-25T20:31:52.653Z,60.17
2018-05-25T20:34:19.315Z,60.27
2018-05-25T20:36:45.877Z,60.65
2018-05-25T20:39:59.939Z,61.05
2018-05-25T20:42:29.542Z,61.05
2018-05-25T20:44:56.147Z,61.36
2018-05-25T20:47:22.886Z,61.35
2018-05-25T20:49:53.947Z,62.05
2018-05-25T20:52:20.682Z,61.68
2018-05-25T20:54:47.184Z,61.58
2018-05-25T20:57:23.758Z,61.55
2018-05-25T20:59:50.598Z,62.19
2018-05-25T21:02:17.167Z,62.08
2018-05-25T21:04:43.792Z,61.91
2018-05-25T21:07:10.543Z,61.85
2018-05-25T21:09:37.225Z,61.69
2018-05-25T21:12:03.965Z,62.26
2018-05-25T21:14:41.852Z,62.09
2018-05-25T21:17:27.230Z,61.90
2018-05-25T21:19:54.161Z,61.72
2018-05-25T21:22:20.549Z,61.67
2018-05-25T21:24:47.042Z,61.64
2018-05-25T21:30:30.819Z,62.08
2018-05-25T21:33:02.073Z,63.01
2018-05-25T21:35:32.548Z,63.02
2018-05-25T21:38:02.593Z,62.74
2018-05-25T21:40:31.244Z,62.79
2018-05-25T21:42:59.050Z,63.07
2018-05-25T21:45:50.167Z,62.80
2018-05-25T21:48:18.261Z,63.18
2018-05-25T21:50:49.436Z,63.16
2018-05-25T21:53:16.286Z,63.23
2018-05-25T21:55:44.837Z,63.24
2018-05-25T21:58:13.356Z,63.33
2018-05-25T22:00:39.998Z,63.11
2018-05-25T22:03:07.537Z,62.73
2018-05-25T22:05:34.062Z,62.33
2018-05-25T22:08:00.568Z,62.39
2018-05-25T22:17:10.668Z,64.70
2018-05-25T22:19:37.443Z,64.66
2018-05-25T22:22:04.360Z,64.00
2018-05-25T22:24:30.832Z,63.63
2018-05-25T22:26:59.138Z,63.43
2018-05-25T22:29:26.051Z,63.07
2018-05-25T22:31:53.367Z,62.77
2018-05-25T22:34:26.413Z,63.29
2018-05-25T22:36:56.271Z,63.47
2018-05-25T22:39:23.168Z,63.41
2018-05-25T22:41:53.335Z,63.82
2018-05-25T22:44:33.148Z,63.61
2018-05-25T22:47:18.634Z,63.66
2018-05-25T22:50:03.588Z,63.54
2018-05-25T22:52:42.073Z,63.42
2018-05-25T22:55:14.133Z,63.25
2018-05-25T22:57:42.072Z,63.37
2018-05-25T23:00:09.470Z,63.33
2018-05-25T23:02:37.083Z,63.45
2018-05-25T23:05:04.756Z,63.84
2018-05-25T23:07:32.598Z,64.23
2018-05-25T23:09:59.310Z,64.10
2018-05-25T23:12:25.968Z,64.43
2018-05-25T23:14:52.873Z,64.42
2018-05-25T23:17:19.755Z,64.51
2018-05-25T23:19:47.617Z,64.68
2018-05-25T23:22:15.220Z,64.44
2018-05-25T23:24:45.005Z,64.97
2018-05-25T23:27:12.007Z,64.68
2018-05-25T23:29:39.606Z,64.60
2018-05-25T23:32:11.329Z,64.50
2018-05-25T23:34:38.399Z,64.50
2018-05-25T23:37:06.765Z,64.46
2018-05-25T23:39:33.823Z,64.49
2018-05-25T23:42:01.471Z,64.82
2018-05-25T23:44:29.202Z,64.92
2018-05-25T23:46:57.008Z,64.81
2018-05-25T23:49:27.046Z,64.64
2018-05-25T23:52:07.107Z,64.70
2018-05-25T23:54:37.227Z,64.52
2018-05-25T23:57:06.919Z,64.45
2018-05-25T23:59:42.376Z,64.56
